Time;durP1;ratioP1;P1;durP2;ratioP2;P2;SDS_P1;SDS_P2;PMS_P1;PMS_P2;Temp;Humidity;BMP_temperature;BMP_pressure;BME280_temperature;BME280_humidity;BME280_pressure;Samples;Min_cycle;Max_cycle;Signal;HPM_P1;HPM_P2
2022/10/09 00:01:29;;;;;;;8.05;5.53;;;19.20;99.90;;;;;;5033271;28;20056;-74
2022/10/09 00:03:58;;;;;;;8.55;5.85;;;19.20;99.90;;;;;;5067596;28;20049;-73
2022/10/09 00:06:32;;;;;;;10.15;5.70;;;19.20;99.90;;;;;;5011410;28;20434;-72
2022/10/09 00:09:03;;;;;;;8.75;5.32;;;19.20;99.90;;;;;;5044776;28;20052;-71
2022/10/09 00:11:32;;;;;;;9.55;6.18;;;19.20;99.90;;;;;;5042386;28;20121;-71
2022/10/09 00:14:02;;;;;;;7.05;5.45;;;19.20;99.90;;;;;;5028082;28;20128;-72
2022/10/09 00:16:29;;;;;;;7.72;5.22;;;19.20;99.90;;;;;;5068470;28;20052;-72
2022/10/09 00:18:58;;;;;;;6.85;5.55;;;19.20;99.90;;;;;;5028182;28;20063;-76
2022/10/09 00:21:29;;;;;;;7.13;5.40;;;19.20;99.90;;;;;;5017873;28;20052;-71
2022/10/09 00:23:59;;;;;;;8.43;5.00;;;19.20;99.90;;;;;;5064806;28;20130;-72
2022/10/09 00:26:28;;;;;;;7.03;5.38;;;19.10;99.90;;;;;;5065519;28;20068;-72
2022/10/09 00:28:56;;;;;;;8.45;6.30;;;19.20;99.90;;;;;;5065933;28;20067;-73
2022/10/09 00:31:24;;;;;;;7.30;5.03;;;19.20;99.90;;;;;;5044299;28;20373;-72
2022/10/09 00:33:52;;;;;;;9.18;6.70;;;19.20;99.90;;;;;;5051745;28;20775;-72
2022/10/09 00:36:23;;;;;;;8.05;6.20;;;19.10;99.90;;;;;;5024884;28;20507;-75
2022/10/09 00:38:52;;;;;;;7.88;5.88;;;19.10;99.90;;;;;;5047116;28;20053;-71
2022/10/09 00:41:23;;;;;;;8.32;5.75;;;19.10;99.90;;;;;;5036126;28;20049;-75
2022/10/09 00:44:22;;;;;;;11.18;6.65;;;19.10;99.90;;;;;;5062109;28;20060;-72
2022/10/09 00:46:51;;;;;;;10.35;6.15;;;19.10;99.90;;;;;;5051783;28;20043;-72
2022/10/09 00:49:31;;;;;;;8.38;6.13;;;19.10;99.90;;;;;;5061325;28;20577;-72
2022/10/09 00:52:06;;;;;;;12.00;6.75;;;19.00;99.90;;;;;;5045048;28;20565;-72
2022/10/09 00:54:36;;;;;;;7.53;5.88;;;19.00;99.90;;;;;;5061561;28;20509;-72
2022/10/09 00:57:04;;;;;;;11.23;6.85;;;19.10;99.90;;;;;;5052294;28;20060;-73
2022/10/09 00:59:32;;;;;;;6.65;5.60;;;19.00;99.90;;;;;;5061461;28;20044;-74
2022/10/09 01:02:00;;;;;;;9.40;6.60;;;19.00;99.90;;;;;;5031085;28;20049;-74
2022/10/09 01:04:28;;;;;;;8.60;6.20;;;19.00;99.90;;;;;;5043615;28;20431;-72
2022/10/09 01:07:21;;;;;;;8.30;6.25;;;19.00;99.90;;;;;;5020061;28;20179;-72
2022/10/09 01:10:00;;;;;;;7.75;5.93;;;18.90;99.90;;;;;;5065632;28;20102;-74
2022/10/09 01:12:48;;;;;;;11.27;6.43;;;18.90;99.90;;;;;;5051804;28;20131;-73
2022/10/09 01:15:23;;;;;;;10.90;6.88;;;18.90;99.90;;;;;;5038787;28;20052;-71
2022/10/09 01:18:15;;;;;;;8.73;7.15;;;18.80;99.90;;;;;;5069814;28;20048;-72
2022/10/09 01:20:58;;;;;;;10.10;6.03;;;18.80;99.90;;;;;;5050001;28;20094;-73
2022/10/09 01:23:52;;;;;;;7.97;6.32;;;18.80;99.90;;;;;;5033944;28;20075;-73
2022/10/09 01:26:43;;;;;;;8.60;6.18;;;18.70;99.90;;;;;;5051241;28;20060;-72
2022/10/09 01:29:13;;;;;;;7.78;6.25;;;18.70;99.90;;;;;;5043657;28;20154;-73
2022/10/09 01:31:43;;;;;;;7.15;5.45;;;18.70;99.90;;;;;;5051240;28;20041;-72
2022/10/09 01:34:13;;;;;;;7.75;5.32;;;18.70;99.90;;;;;;5017802;28;20143;-71
2022/10/09 01:36:43;;;;;;;13.60;7.15;;;18.60;99.90;;;;;;5035939;28;20052;-72
2022/10/09 01:39:17;;;;;;;8.20;6.80;;;18.60;99.90;;;;;;5035473;28;20051;-72
2022/10/09 01:41:46;;;;;;;6.70;5.18;;;18.60;99.90;;;;;;5035841;28;20053;-74
2022/10/09 01:44:21;;;;;;;11.80;6.70;;;18.60;99.90;;;;;;5035358;28;20063;-74
2022/10/09 01:46:49;;;;;;;8.38;5.65;;;18.60;99.90;;;;;;5033461;28;20037;-73
2022/10/09 01:49:33;;;;;;;7.35;5.63;;;18.50;99.90;;;;;;5047052;28;20064;-73
2022/10/09 01:52:26;;;;;;;6.85;5.38;;;18.50;99.90;;;;;;5031252;28;20049;-75
2022/10/09 01:55:12;;;;;;;7.18;5.90;;;18.50;99.90;;;;;;5031573;28;20056;-72
2022/10/09 01:57:47;;;;;;;6.68;5.97;;;18.50;99.90;;;;;;5031508;28;20045;-72
2022/10/09 02:00:15;;;;;;;8.43;6.18;;;18.50;99.90;;;;;;4999102;28;20069;-73
2022/10/09 02:02:44;;;;;;;6.47;5.57;;;18.50;99.90;;;;;;5031718;28;20064;-72
2022/10/09 02:05:19;;;;;;;6.85;5.47;;;18.50;99.90;;;;;;5014829;28;20037;-72
2022/10/09 02:07:47;;;;;;;7.65;5.30;;;18.50;99.90;;;;;;4998676;28;20053;-72
2022/10/09 02:10:16;;;;;;;6.80;5.47;;;18.50;99.90;;;;;;5031839;28;20446;-72
2022/10/09 02:12:48;;;;;;;8.50;4.82;;;18.60;99.90;;;;;;5015295;28;20060;-72
2022/10/09 02:15:16;;;;;;;6.78;5.30;;;18.60;99.90;;;;;;5014759;28;20582;-72
2022/10/09 02:17:47;;;;;;;8.90;5.60;;;18.60;99.90;;;;;;5028540;28;20051;-73
2022/10/09 02:20:39;;;;;;;7.45;5.30;;;18.60;99.90;;;;;;4995131;28;20080;-75
2022/10/09 02:23:08;;;;;;;7.53;5.40;;;18.60;99.90;;;;;;5011391;28;20192;-73
2022/10/09 02:25:36;;;;;;;6.10;4.82;;;18.60;99.90;;;;;;4995167;28;20526;-72
2022/10/09 02:28:04;;;;;;;9.15;6.13;;;18.60;99.90;;;;;;5011680;28;20053;-73
2022/10/09 02:30:55;;;;;;;8.10;5.40;;;18.50;99.90;;;;;;5011961;28;20057;-72
2022/10/09 02:33:30;;;;;;;8.05;5.55;;;18.50;99.90;;;;;;4995346;28;20583;-73
2022/10/09 02:35:58;;;;;;;8.27;5.72;;;18.50;99.90;;;;;;4995600;28;20053;-74
2022/10/09 02:38:25;;;;;;;8.93;5.90;;;18.50;99.90;;;;;;4979483;28;20135;-74
2022/10/09 02:40:57;;;;;;;8.25;5.60;;;18.40;99.90;;;;;;5014605;28;20049;-72
2022/10/09 02:43:25;;;;;;;7.97;5.90;;;18.40;99.90;;;;;;5031048;28;20048;-72
2022/10/09 02:45:52;;;;;;;6.65;5.45;;;18.30;99.90;;;;;;5031143;28;20049;-72
2022/10/09 02:48:20;;;;;;;6.75;5.68;;;18.20;99.90;;;;;;5015150;28;20059;-71
2022/10/09 02:50:48;;;;;;;7.53;5.38;;;18.20;99.90;;;;;;5014754;28;20091;-72
2022/10/09 02:53:16;;;;;;;7.90;5.68;;;18.20;99.90;;;;;;5030969;28;20128;-73
2022/10/09 02:55:43;;;;;;;6.30;5.07;;;18.20;99.90;;;;;;5014889;28;20067;-72
2022/10/09 02:58:11;;;;;;;6.70;5.15;;;18.10;99.90;;;;;;5014693;28;20116;-72
2022/10/09 03:00:38;;;;;;;6.78;5.75;;;18.10;99.90;;;;;;5010869;28;20411;-72
2022/10/09 03:03:06;;;;;;;6.32;5.07;;;18.10;99.90;;;;;;5043166;28;20041;-72
2022/10/09 03:05:34;;;;;;;7.05;5.93;;;18.20;99.90;;;;;;5029821;28;20052;-72
2022/10/09 03:08:01;;;;;;;6.32;4.78;;;18.10;99.90;;;;;;5048199;28;20144;-73
2022/10/09 03:10:29;;;;;;;5.93;4.10;;;18.10;99.90;;;;;;5031140;28;20492;-72
2022/10/09 03:12:57;;;;;;;8.75;4.53;;;18.10;99.90;;;;;;5047753;28;20048;-72
2022/10/09 03:15:24;;;;;;;6.45;4.63;;;18.10;99.90;;;;;;5048638;28;20132;-72
2022/10/09 03:17:52;;;;;;;6.80;4.30;;;18.10;99.90;;;;;;5033680;28;20051;-71
2022/10/09 03:20:20;;;;;;;5.65;4.80;;;18.20;99.90;;;;;;5050662;28;20084;-72
2022/10/09 03:22:47;;;;;;;5.85;4.18;;;18.20;99.90;;;;;;5017830;28;20064;-72
2022/10/09 03:25:15;;;;;;;5.38;3.97;;;18.10;99.90;;;;;;5067285;28;20043;-72
2022/10/09 03:27:43;;;;;;;5.18;4.38;;;18.20;99.90;;;;;;5018436;28;20503;-72
2022/10/09 03:30:11;;;;;;;5.88;4.43;;;18.20;99.90;;;;;;5057103;28;20103;-73
2022/10/09 03:32:39;;;;;;;7.28;4.75;;;18.10;99.90;;;;;;5023790;28;20405;-72
2022/10/09 03:35:08;;;;;;;5.35;4.65;;;18.10;99.90;;;;;;5023823;28;20816;-72
2022/10/09 03:37:35;;;;;;;6.10;3.85;;;18.20;99.90;;;;;;5020337;28;20077;-71
2022/10/09 03:40:04;;;;;;;5.82;4.25;;;18.10;99.90;;;;;;5036947;28;20060;-72
2022/10/09 03:42:31;;;;;;;6.63;4.03;;;18.20;99.90;;;;;;5020770;28;20059;-73
2022/10/09 03:45:03;;;;;;;5.30;3.80;;;18.20;99.90;;;;;;5037343;28;20053;-71
2022/10/09 03:47:31;;;;;;;5.15;3.63;;;18.20;99.90;;;;;;5037556;28;20077;-72
2022/10/09 03:49:58;;;;;;;5.32;3.78;;;18.20;99.90;;;;;;5037479;28;20077;-73
2022/10/09 03:52:26;;;;;;;5.45;3.42;;;18.20;99.90;;;;;;5020650;28;20571;-71
2022/10/09 03:54:54;;;;;;;4.65;3.95;;;18.20;99.90;;;;;;5037154;28;20043;-72
2022/10/09 03:57:21;;;;;;;4.80;3.22;;;18.20;99.90;;;;;;5036506;28;20107;-74
2022/10/09 03:59:49;;;;;;;4.18;3.45;;;18.30;99.90;;;;;;5036781;28;20045;-72
2022/10/09 04:02:16;;;;;;;4.95;3.30;;;18.30;99.90;;;;;;5037023;28;20033;-73
2022/10/09 04:04:44;;;;;;;4.28;3.30;;;18.30;99.90;;;;;;5020704;28;20049;-72
2022/10/09 04:07:12;;;;;;;4.50;3.55;;;18.30;99.90;;;;;;5036465;28;20151;-72
2022/10/09 04:09:39;;;;;;;5.53;4.05;;;18.30;99.90;;;;;;5020097;28;20562;-72
2022/10/09 04:12:07;;;;;;;7.00;4.00;;;18.30;99.90;;;;;;5020522;28;20179;-72
2022/10/09 04:14:35;;;;;;;6.82;4.78;;;18.30;99.90;;;;;;5036869;28;20100;-73
2022/10/09 04:17:03;;;;;;;5.65;4.63;;;18.30;99.90;;;;;;5037044;28;20049;-72
2022/10/09 04:19:30;;;;;;;6.82;4.75;;;18.30;99.90;;;;;;5036700;28;20240;-72
2022/10/09 04:21:58;;;;;;;5.35;4.28;;;18.20;99.90;;;;;;5019281;28;20048;-72
2022/10/09 04:24:26;;;;;;;5.97;3.72;;;18.20;99.90;;;;;;5036591;28;20060;-72
2022/10/09 04:26:53;;;;;;;5.38;3.70;;;18.20;99.90;;;;;;5036498;28;20053;-72
2022/10/09 04:29:21;;;;;;;5.38;4.15;;;18.10;99.90;;;;;;5071795;28;21029;-73
2022/10/09 04:31:48;;;;;;;5.07;3.92;;;18.10;99.90;;;;;;5056733;28;20359;-73
2022/10/09 04:34:16;;;;;;;6.47;3.92;;;18.10;99.90;;;;;;5039372;28;20045;-73
2022/10/09 04:36:44;;;;;;;5.97;3.75;;;18.00;99.90;;;;;;5056712;28;20051;-72
2022/10/09 04:39:12;;;;;;;5.82;3.38;;;18.00;99.90;;;;;;5039404;28;20048;-72
2022/10/09 04:41:40;;;;;;;6.30;4.07;;;18.00;99.90;;;;;;5036582;28;20082;-72
2022/10/09 04:44:07;;;;;;;6.20;4.55;;;17.90;99.90;;;;;;5035709;28;20052;-71
2022/10/09 04:46:35;;;;;;;6.90;5.28;;;17.90;99.90;;;;;;5070916;28;20157;-71
2022/10/09 04:49:02;;;;;;;10.05;6.35;;;17.90;99.90;;;;;;5052867;28;20056;-72
2022/10/09 04:51:30;;;;;;;6.32;4.65;;;17.90;99.90;;;;;;5052907;28;20805;-72
2022/10/09 04:53:58;;;;;;;7.80;5.20;;;17.90;99.90;;;;;;5052894;28;20048;-72
2022/10/09 04:56:26;;;;;;;8.05;5.57;;;17.90;99.90;;;;;;5052525;28;20041;-74
2022/10/09 04:58:54;;;;;;;7.05;5.13;;;17.90;99.90;;;;;;5052526;28;20063;-73
2022/10/09 05:01:24;;;;;;;6.68;5.68;;;17.90;99.90;;;;;;5035915;28;20127;-72
2022/10/09 05:03:53;;;;;;;7.43;5.50;;;18.00;99.90;;;;;;5019550;28;20059;-72
2022/10/09 05:06:22;;;;;;;7.88;5.07;;;18.00;99.90;;;;;;5035971;28;20052;-72
2022/10/09 05:08:50;;;;;;;6.38;5.35;;;18.10;99.90;;;;;;5036277;28;20060;-72
2022/10/09 05:11:21;;;;;;;9.55;4.93;;;18.20;99.90;;;;;;5035958;28;20055;-72
2022/10/09 05:13:51;;;;;;;6.97;6.05;;;18.30;99.90;;;;;;5071005;28;20052;-72
2022/10/09 05:16:27;;;;;;;6.70;5.60;;;18.40;99.90;;;;;;5068448;28;20044;-72
2022/10/09 05:18:57;;;;;;;6.65;4.53;;;18.50;99.90;;;;;;5052332;28;20090;-73
2022/10/09 05:21:26;;;;;;;8.07;6.13;;;18.60;99.90;;;;;;5036006;28;20056;-72
2022/10/09 05:23:55;;;;;;;6.15;4.55;;;18.80;99.90;;;;;;5036111;28;20079;-71
2022/10/09 05:26:24;;;;;;;8.75;5.30;;;19.00;99.90;;;;;;5052389;28;20048;-73
2022/10/09 05:28:52;;;;;;;4.95;3.95;;;19.10;99.90;;;;;;5052502;28;20068;-72
2022/10/09 05:31:22;;;;;;;7.10;4.18;;;19.30;99.90;;;;;;5069789;28;20127;-72
2022/10/09 05:33:50;;;;;;;6.75;5.55;;;19.40;99.90;;;;;;5052087;28;20041;-73
2022/10/09 05:36:18;;;;;;;9.43;5.78;;;19.50;99.90;;;;;;5035424;28;20080;-72
2022/10/09 05:38:46;;;;;;;7.45;5.43;;;19.60;99.90;;;;;;5051285;28;20124;-72
2022/10/09 05:41:16;;;;;;;4.80;4.10;;;19.80;99.90;;;;;;5051610;28;20048;-74
2022/10/09 05:43:46;;;;;;;6.55;4.45;;;19.90;99.90;;;;;;5052026;28;20053;-72
2022/10/09 05:46:18;;;;;;;5.93;4.55;;;19.90;99.90;;;;;;5035882;28;20809;-72
2022/10/09 05:48:53;;;;;;;5.57;4.47;;;20.00;99.90;;;;;;5051851;28;20044;-71
2022/10/09 05:51:29;;;;;;;7.38;4.20;;;20.30;99.90;;;;;;5034181;28;20048;-73
2022/10/09 05:53:58;;;;;;;;;;;20.40;99.90;;;;;;5071008;28;20515;-74
2022/10/09 05:56:37;;;;;;;5.72;3.95;;;20.50;99.90;;;;;;5052445;28;19929;-72
2022/10/09 05:59:07;;;;;;;6.28;4.10;;;20.60;99.90;;;;;;5069677;28;20131;-72
2022/10/09 06:01:45;;;;;;;7.00;3.72;;;20.70;99.90;;;;;;5036067;28;20059;-73
2022/10/09 06:04:23;;;;;;;5.95;4.20;;;21.00;99.90;;;;;;5035626;28;20136;-72
2022/10/09 06:06:51;;;;;;;8.27;3.65;;;21.20;99.90;;;;;;5052331;28;20053;-71
2022/10/09 06:09:21;;;;;;;4.88;3.63;;;21.50;99.90;;;;;;5069613;28;20056;-70
2022/10/09 06:11:50;;;;;;;6.07;4.30;;;21.70;99.90;;;;;;5051640;28;20686;-70
2022/10/09 06:14:20;;;;;;;5.60;4.25;;;22.00;99.90;;;;;;5068472;28;20047;-70
2022/10/09 06:16:56;;;;;;;5.25;4.40;;;22.30;99.90;;;;;;5065467;28;20332;-71
2022/10/09 06:19:24;;;;;;;10.40;4.95;;;22.60;99.90;;;;;;5051000;28;20079;-69
2022/10/09 06:21:55;;;;;;;7.68;4.93;;;22.80;99.90;;;;;;5003367;28;20152;-70
2022/10/09 06:24:24;;;;;;;6.43;4.07;;;22.80;99.90;;;;;;5063901;28;20049;-72
2022/10/09 06:26:55;;;;;;;6.80;4.25;;;23.00;99.90;;;;;;5037779;28;20139;-69
2022/10/09 06:29:23;;;;;;;5.53;3.72;;;23.30;99.90;;;;;;5019827;28;20076;-69
2022/10/09 06:31:51;;;;;;;6.25;4.00;;;23.50;99.90;;;;;;5029499;28;20048;-69
2022/10/09 06:34:18;;;;;;;6.43;3.90;;;23.70;99.90;;;;;;5025051;28;20055;-69
2022/10/09 06:36:46;;;;;;;5.10;3.75;;;23.90;99.90;;;;;;5032656;28;20116;-70
2022/10/09 06:39:15;;;;;;;4.07;2.85;;;24.10;99.90;;;;;;5054654;28;20553;-71
2022/10/09 06:41:42;;;;;;;5.32;2.97;;;24.30;99.90;;;;;;5032557;28;20128;-70
2022/10/09 06:44:23;;;;;;;5.85;4.18;;;24.40;99.90;;;;;;5034103;28;20044;-70
2022/10/09 06:46:50;;;;;;;7.32;4.00;;;24.30;99.90;;;;;;5046671;28;20147;-70
2022/10/09 06:49:18;;;;;;;4.60;3.63;;;24.30;99.90;;;;;;5023183;28;20052;-72
2022/10/09 06:51:46;;;;;;;5.68;3.22;;;24.20;99.90;;;;;;5060237;28;20053;-70
2022/10/09 06:54:16;;;;;;;5.32;3.58;;;24.00;99.90;;;;;;5010016;28;20045;-72
2022/10/09 06:56:43;;;;;;;4.38;3.05;;;23.80;99.90;;;;;;5022122;28;20040;-72
2022/10/09 06:59:11;;;;;;;4.80;2.92;;;23.80;99.90;;;;;;5046963;28;20068;-69
2022/10/09 07:01:40;;;;;;;3.97;2.90;;;23.80;99.90;;;;;;5015081;28;20059;-71
2022/10/09 07:04:13;;;;;;;4.63;3.10;;;23.70;99.90;;;;;;5019304;28;20690;-69
2022/10/09 07:06:43;;;;;;;3.38;2.47;;;23.60;99.90;;;;;;5059485;28;20036;-69
2022/10/09 07:09:12;;;;;;;4.18;2.95;;;23.70;99.90;;;;;;5019716;28;20055;-70
2022/10/09 07:11:42;;;;;;;4.45;3.25;;;23.70;99.90;;;;;;5029829;28;20063;-71
2022/10/09 07:14:12;;;;;;;4.53;2.92;;;24.00;99.90;;;;;;5040355;28;20072;-69
2022/10/09 07:16:42;;;;;;;8.13;3.22;;;24.20;99.90;;;;;;5054137;28;20351;-70
2022/10/09 07:19:11;;;;;;;5.05;3.00;;;24.40;99.90;;;;;;5010177;28;20155;-69
2022/10/09 07:21:43;;;;;;;6.28;2.88;;;24.60;99.90;;;;;;5056035;28;20198;-69
2022/10/09 07:24:14;;;;;;;5.10;2.78;;;24.50;99.90;;;;;;5033086;28;20410;-70
2022/10/09 07:26:44;;;;;;;6.18;3.33;;;24.50;99.90;;;;;;5032286;28;20037;-72
2022/10/09 07:29:13;;;;;;;5.00;3.10;;;24.50;99.90;;;;;;5037591;28;20076;-70
2022/10/09 07:31:41;;;;;;;10.10;3.60;;;24.60;99.90;;;;;;5031599;28;20048;-69
2022/10/09 07:34:09;;;;;;;7.43;3.55;;;24.70;99.90;;;;;;5049204;28;20124;-70
2022/10/09 07:36:37;;;;;;;4.68;2.97;;;24.30;99.90;;;;;;5048086;28;20125;-72
2022/10/09 07:39:05;;;;;;;6.78;3.10;;;24.10;99.90;;;;;;5052007;28;20044;-70
2022/10/09 07:41:34;;;;;;;6.10;2.60;;;24.20;99.90;;;;;;5049949;28;20041;-70
2022/10/09 07:44:02;;;;;;;6.05;3.63;;;24.30;99.90;;;;;;5037060;28;20131;-71
2022/10/09 07:46:29;;;;;;;8.73;3.58;;;24.50;99.90;;;;;;5047471;28;20060;-70
2022/10/09 07:49:00;;;;;;;4.95;3.75;;;24.60;99.90;;;;;;5032803;28;20044;-69
2022/10/09 07:51:29;;;;;;;6.18;3.33;;;24.80;99.90;;;;;;5027047;28;20116;-71
2022/10/09 07:53:59;;;;;;;6.13;3.33;;;24.90;99.90;;;;;;5024603;28;20479;-71
2022/10/09 07:56:29;;;;;;;4.47;2.97;;;25.10;99.90;;;;;;5032108;28;20083;-76
2022/10/09 07:59:03;;;;;;;5.18;2.80;;;25.30;99.90;;;;;;5031917;28;20052;-70
2022/10/09 08:01:33;;;;;;;6.07;3.35;;;25.60;99.90;;;;;;5057883;28;20048;-71
2022/10/09 08:04:03;;;;;;;4.15;3.05;;;25.70;99.40;;;;;;5067107;28;20135;-69
2022/10/09 08:06:32;;;;;;;4.88;2.60;;;25.60;98.40;;;;;;5045173;28;20040;-73
2022/10/09 08:09:01;;;;;;;4.50;2.40;;;25.70;98.20;;;;;;5048855;28;20053;-71
2022/10/09 08:11:29;;;;;;;7.47;2.63;;;25.70;98.00;;;;;;5033712;28;20048;-71
2022/10/09 08:13:57;;;;;;;4.07;2.90;;;25.80;98.10;;;;;;5057368;28;20051;-70
2022/10/09 08:16:27;;;;;;;3.25;2.30;;;25.90;97.90;;;;;;5050968;28;20052;-70
2022/10/09 08:18:57;;;;;;;6.35;3.30;;;26.10;97.40;;;;;;5069677;28;20056;-71
2022/10/09 08:21:27;;;;;;;5.00;2.72;;;26.10;97.00;;;;;;5040573;28;20510;-70
2022/10/09 08:23:57;;;;;;;4.00;2.20;;;26.20;96.60;;;;;;5051445;28;20040;-72
2022/10/09 08:26:26;;;;;;;3.63;1.92;;;26.30;95.90;;;;;;5024771;28;20098;-71
2022/10/09 08:28:56;;;;;;;3.75;2.58;;;26.10;95.80;;;;;;5039670;28;20061;-72
2022/10/09 08:31:25;;;;;;;3.38;2.28;;;26.30;95.80;;;;;;5018409;28;20044;-70
2022/10/09 08:33:58;;;;;;;3.85;2.63;;;26.30;95.70;;;;;;5032500;28;20143;-70
2022/10/09 08:36:27;;;;;;;3.50;2.72;;;26.40;95.00;;;;;;5044244;28;20056;-70
2022/10/09 08:38:55;;;;;;;4.03;2.20;;;26.40;95.00;;;;;;5039206;28;20048;-70
2022/10/09 08:41:32;;;;;;;5.07;2.60;;;26.40;94.60;;;;;;5064608;28;20483;-76
2022/10/09 08:44:23;;;;;;;4.45;3.13;;;26.40;94.70;;;;;;5027395;28;20056;-72
2022/10/09 08:47:03;;;;;;;6.15;2.47;;;26.60;94.90;;;;;;5025057;28;20351;-72
2022/10/09 08:49:43;;;;;;;3.78;2.50;;;26.50;94.40;;;;;;5023522;28;20103;-72
2022/10/09 08:52:44;;;;;;;7.47;2.60;;;26.30;94.40;;;;;;5019756;28;20056;-72
2022/10/09 08:55:30;;;;;;;4.60;2.60;;;26.20;94.30;;;;;;5035117;28;20045;-72
2022/10/09 08:58:04;;;;;;;6.60;3.30;;;26.10;94.00;;;;;;5036267;28;20083;-71
2022/10/09 09:00:44;;;;;;;4.15;2.58;;;26.10;94.00;;;;;;5036122;28;20572;-71
2022/10/09 09:03:32;;;;;;;3.97;2.65;;;26.00;94.30;;;;;;5052124;28;20048;-72
2022/10/09 09:06:21;;;;;;;8.70;3.55;;;25.90;93.80;;;;;;5035900;28;20102;-72
2022/10/09 09:08:49;;;;;;;19.80;3.97;;;25.80;94.10;;;;;;5035658;28;20159;-72
2022/10/09 09:11:30;;;;;;;5.90;2.78;;;25.90;93.90;;;;;;5052400;28;20131;-72
2022/10/09 09:14:01;;;;;;;5.03;3.05;;;25.90;94.00;;;;;;5070345;28;20785;-73
2022/10/09 09:17:04;;;;;;;5.07;3.05;;;26.00;94.10;;;;;;5052651;28;20048;-72
2022/10/09 09:19:53;;;;;;;7.05;2.78;;;26.10;93.30;;;;;;4936741;28;20055;-72
2022/10/09 09:22:23;;;;;;;4.25;2.65;;;26.00;93.40;;;;;;5048358;28;20087;-72
2022/10/09 09:24:54;;;;;;;7.63;2.60;;;25.90;93.20;;;;;;5051695;28;20414;-72
2022/10/09 09:27:30;;;;;;;4.30;2.92;;;25.90;93.40;;;;;;5018777;28;20503;-72
2022/10/09 09:30:00;;;;;;;;;;;26.00;93.60;;;;;;5070553;28;20341;-72
2022/10/09 09:32:30;;;;;;;6.75;3.58;;;26.10;94.00;;;;;;5052218;28;20386;-72
2022/10/09 09:35:26;;;;;;;4.30;3.08;;;26.20;94.10;;;;;;5018677;28;20075;-72
2022/10/09 09:37:54;;;;;;;5.57;3.10;;;26.30;93.80;;;;;;5051890;28;20105;-72
2022/10/09 09:40:28;;;;;;;4.47;2.65;;;26.40;93.80;;;;;;5051307;28;20509;-72
2022/10/09 09:43:18;;;;;;;5.13;3.28;;;26.50;93.70;;;;;;5036911;28;20040;-72
2022/10/09 09:45:47;;;;;;;5.20;3.33;;;26.50;93.70;;;;;;5030211;28;20076;-72
2022/10/09 09:48:24;;;;;;;6.80;3.08;;;26.50;93.80;;;;;;5015091;28;20151;-72
2022/10/09 09:50:53;;;;;;;4.93;3.08;;;26.50;93.90;;;;;;5030996;28;20057;-72
2022/10/09 09:53:46;;;;;;;4.80;3.33;;;26.60;93.70;;;;;;5016493;28;20056;-72
2022/10/09 09:56:15;;;;;;;5.85;3.38;;;26.70;93.10;;;;;;5048265;28;20744;-72
2022/10/09 09:58:49;;;;;;;4.47;3.03;;;26.70;92.70;;;;;;5031285;28;20139;-72
2022/10/09 10:01:24;;;;;;;6.18;3.47;;;26.60;92.70;;;;;;5048493;28;20072;-73
2022/10/09 10:03:53;;;;;;;;;;;26.40;92.40;;;;;;5031661;28;20052;-72
2022/10/09 10:06:40;;;;;;;4.10;2.95;;;26.30;92.00;;;;;;5031562;28;19970;-72
2022/10/09 10:09:18;;;;;;;5.18;3.65;;;26.00;92.60;;;;;;5031050;28;20041;-71
2022/10/09 10:12:00;;;;;;;5.60;3.17;;;26.00;93.00;;;;;;4998399;28;20056;-72
2022/10/09 10:14:28;;;;;;;5.53;3.03;;;26.00;93.30;;;;;;5030920;28;20052;-72
2022/10/09 10:16:58;;;;;;;4.97;3.15;;;26.00;93.50;;;;;;5031453;28;20150;-72
2022/10/09 10:19:28;;;;;;;5.07;3.15;;;25.90;94.00;;;;;;5048856;28;20554;-72
2022/10/09 10:21:59;;;;;;;5.13;3.25;;;25.80;94.20;;;;;;4998350;28;20045;-72
2022/10/09 10:24:31;;;;;;;5.00;3.13;;;26.00;94.20;;;;;;5014527;28;20500;-72
2022/10/09 10:27:11;;;;;;;4.72;2.97;;;26.20;94.30;;;;;;5031060;28;20479;-72
2022/10/09 10:29:42;;;;;;;7.82;3.20;;;26.50;94.00;;;;;;5047737;28;20056;-72
2022/10/09 10:32:41;;;;;;;8.80;3.53;;;26.70;93.60;;;;;;5030615;28;20045;-72
2022/10/09 10:35:18;;;;;;;5.53;3.22;;;26.70;93.70;;;;;;5030858;28;20052;-72
2022/10/09 10:37:54;;;;;;;7.63;4.10;;;26.70;93.70;;;;;;5014198;28;20490;-72
2022/10/09 10:40:35;;;;;;;8.82;3.97;;;26.70;94.20;;;;;;4998298;28;20155;-72
2022/10/09 10:43:06;;;;;;;6.03;4.30;;;26.60;95.70;;;;;;5013737;28;20048;-72
2022/10/09 10:45:43;;;;;;;6.68;3.80;;;26.60;97.30;;;;;;5014403;28;20061;-72
2022/10/09 10:48:23;;;;;;;5.47;3.28;;;26.40;97.90;;;;;;5014285;28;20049;-71
2022/10/09 10:51:09;;;;;;;7.88;4.47;;;26.40;98.00;;;;;;4998007;28;20081;-73
2022/10/09 10:53:50;;;;;;;5.93;3.55;;;26.40;98.20;;;;;;5014164;28;20403;-72
2022/10/09 10:56:20;;;;;;;7.95;4.35;;;26.40;98.20;;;;;;5014178;28;20037;-72
2022/10/09 10:58:54;;;;;;;6.05;4.00;;;26.40;98.60;;;;;;5030359;28;20044;-73
2022/10/09 11:01:25;;;;;;;5.10;4.05;;;26.30;99.00;;;;;;5047672;28;20067;-72
2022/10/09 11:04:28;;;;;;;6.05;4.03;;;26.10;99.30;;;;;;5013948;28;20131;-72
2022/10/09 11:07:17;;;;;;;5.75;4.13;;;26.00;99.60;;;;;;5030644;28;20041;-72
2022/10/09 11:10:03;;;;;;;9.32;4.32;;;25.90;99.70;;;;;;5048307;28;20394;-72
2022/10/09 11:12:41;;;;;;;7.00;3.70;;;25.90;99.60;;;;;;5029884;28;20049;-73
2022/10/09 11:15:25;;;;;;;5.43;3.85;;;25.90;99.70;;;;;;5030287;28;20063;-72
2022/10/09 11:18:01;;;;;;;7.75;4.72;;;25.90;99.50;;;;;;5030030;28;20049;-72
2022/10/09 11:20:59;;;;;;;8.52;3.75;;;25.80;99.80;;;;;;5029623;28;20144;-72
2022/10/09 11:23:54;;;;;;;4.78;3.88;;;25.80;99.80;;;;;;5048174;28;20045;-72
2022/10/09 11:26:30;;;;;;;6.63;4.30;;;25.80;99.80;;;;;;5012801;28;20064;-72
2022/10/09 11:29:16;;;;;;;5.97;3.30;;;25.60;99.90;;;;;;5029457;28;20187;-73
2022/10/09 11:32:00;;;;;;;4.50;3.28;;;25.50;99.90;;;;;;5048168;28;20173;-72
2022/10/09 11:34:43;;;;;;;8.95;4.65;;;25.40;99.90;;;;;;5013589;28;20475;-72
2022/10/09 11:37:19;;;;;;;7.20;3.78;;;25.40;99.90;;;;;;5035060;28;20044;-72
2022/10/09 11:39:47;;;;;;;8.77;4.85;;;25.40;99.90;;;;;;5017312;28;20447;-73
2022/10/09 11:42:20;;;;;;;7.22;4.10;;;25.40;99.90;;;;;;5049714;28;20055;-73
2022/10/09 11:45:00;;;;;;;4.65;3.42;;;25.50;99.90;;;;;;5030901;28;20493;-72
2022/10/09 11:48:09;;;;;;;6.10;3.20;;;25.40;99.80;;;;;;5029873;28;20403;-73
2022/10/09 11:51:13;;;;;;;8.10;4.15;;;25.50;99.60;;;;;;5057315;28;20123;-72
2022/10/09 11:53:43;;;;;;;6.40;3.97;;;25.50;99.70;;;;;;5039596;28;20057;-72
2022/10/09 11:56:29;;;;;;;5.13;3.08;;;25.60;99.50;;;;;;5049933;28;20041;-73
2022/10/09 11:58:57;;;;;;;5.60;3.90;;;25.50;99.20;;;;;;5020369;28;20055;-72
2022/10/09 12:01:31;;;;;;;3.92;3.00;;;25.50;99.10;;;;;;5066445;28;20060;-74
2022/10/09 12:04:08;;;;;;;5.90;3.55;;;25.70;99.00;;;;;;5048049;28;20139;-71
2022/10/09 12:06:54;;;;;;;7.13;3.85;;;25.60;99.10;;;;;;5049088;28;20053;-72
2022/10/09 12:09:35;;;;;;;6.72;3.40;;;25.60;99.10;;;;;;5049360;28;20048;-72
2022/10/09 12:12:06;;;;;;;7.55;3.85;;;25.50;98.90;;;;;;5050630;28;20041;-72
2022/10/09 12:14:37;;;;;;;7.32;3.70;;;25.50;98.80;;;;;;5044793;28;20071;-72
2022/10/09 12:17:23;;;;;;;5.35;3.33;;;25.60;98.90;;;;;;5049739;28;20116;-72
2022/10/09 12:20:16;;;;;;;5.25;3.90;;;25.50;98.50;;;;;;5042352;28;20511;-73
2022/10/09 12:22:47;;;;;;;8.90;3.92;;;25.40;98.50;;;;;;5026623;28;20195;-72
2022/10/09 12:25:31;;;;;;;4.93;3.25;;;25.30;98.60;;;;;;5018322;28;20045;-72
2022/10/09 12:28:00;;;;;;;5.70;3.40;;;25.10;98.80;;;;;;5052260;28;20052;-74
2022/10/09 12:30:37;;;;;;;4.43;3.10;;;25.10;99.10;;;;;;5019777;28;20547;-73
2022/10/09 12:33:13;;;;;;;4.30;3.33;;;24.90;99.00;;;;;;5015056;28;20048;-72
2022/10/09 12:35:45;;;;;;;7.53;3.35;;;24.80;99.30;;;;;;5070613;28;20064;-72
2022/10/09 12:38:26;;;;;;;9.15;3.60;;;24.70;99.60;;;;;;5019398;28;20041;-72
2022/10/09 12:40:56;;;;;;;4.22;2.97;;;24.70;99.20;;;;;;5038510;28;20547;-72
2022/10/09 12:43:24;;;;;;;5.70;4.07;;;24.60;99.30;;;;;;5055088;28;20064;-72
2022/10/09 12:45:53;;;;;;;11.10;5.35;;;24.60;99.60;;;;;;5031672;28;20548;-72
2022/10/09 12:48:24;;;;;;;5.00;3.70;;;24.70;99.50;;;;;;5047807;28;20041;-72
2022/10/09 12:50:53;;;;;;;5.70;3.78;;;24.80;99.40;;;;;;5032828;28;20720;-72
2022/10/09 12:53:24;;;;;;;5.68;3.35;;;24.80;99.30;;;;;;5039066;28;20357;-72
2022/10/09 12:55:58;;;;;;;6.35;3.42;;;24.80;99.00;;;;;;5043093;28;20052;-73
2022/10/09 12:58:28;;;;;;;10.00;4.25;;;24.70;98.80;;;;;;5029988;28;20037;-72
2022/10/09 13:01:01;;;;;;;7.22;3.92;;;24.70;99.10;;;;;;5049142;28;20106;-72
2022/10/09 13:03:35;;;;;;;5.78;4.05;;;24.60;98.80;;;;;;5047792;28;20041;-73
2022/10/09 13:06:06;;;;;;;5.78;3.50;;;24.60;98.90;;;;;;5043735;28;20441;-73
2022/10/09 13:08:37;;;;;;;6.07;3.55;;;24.60;99.00;;;;;;5046090;28;20051;-74
2022/10/09 13:11:31;;;;;;;7.38;4.22;;;24.50;98.90;;;;;;5048498;28;20075;-72
2022/10/09 13:14:00;;;;;;;9.43;3.90;;;24.60;99.10;;;;;;5004901;28;20045;-72
2022/10/09 13:16:47;;;;;;;5.00;4.10;;;24.60;99.00;;;;;;5028170;28;20049;-72
2022/10/09 13:19:24;;;;;;;6.78;3.35;;;24.50;98.80;;;;;;5045524;28;20084;-72